createdAt,value
2023-05-13T00:02:08.413Z,8.05
2023-05-13T00:04:35.665Z,7.28
2023-05-13T00:07:03.923Z,7.57
2023-05-13T00:09:31.065Z,7.75
2023-05-13T00:11:58.241Z,8.20
2023-05-13T00:14:25.780Z,9.48
2023-05-13T00:16:53.214Z,10.57
2023-05-13T00:19:20.686Z,18.38
2023-05-13T00:21:47.999Z,9.40
2023-05-13T00:24:15.307Z,11.18
2023-05-13T00:26:42.665Z,10.02
2023-05-13T00:29:09.805Z,9.77
2023-05-13T00:31:37.801Z,11.48
2023-05-13T00:34:05.614Z,8.70
2023-05-13T00:36:33.009Z,10.93
2023-05-13T00:39:00.489Z,11.55
2023-05-13T00:41:27.699Z,12.27
2023-05-13T00:43:56.809Z,11.15
2023-05-13T00:46:24.504Z,12.20
2023-05-13T00:48:52.063Z,11.02
2023-05-13T00:51:19.273Z,11.35
2023-05-13T00:53:46.963Z,13.77
2023-05-13T00:56:15.137Z,17.40
2023-05-13T00:58:42.267Z,14.02
2023-05-13T01:01:15.755Z,14.07
2023-05-13T01:03:49.109Z,14.85
2023-05-13T01:06:22.221Z,11.60
2023-05-13T01:09:12.015Z,12.05
2023-05-13T01:11:41.590Z,14.40
2023-05-13T01:14:23.222Z,11.73
2023-05-13T01:16:52.380Z,12.55
2023-05-13T01:19:34.787Z,12.95
2023-05-13T01:22:02.105Z,16.83
2023-05-13T01:24:29.340Z,15.45
2023-05-13T01:26:56.650Z,13.65
2023-05-13T01:29:23.938Z,13.98
2023-05-13T01:31:51.703Z,14.00
2023-05-13T01:34:20.184Z,15.65
2023-05-13T01:36:49.335Z,13.90
2023-05-13T01:39:17.468Z,17.98
2023-05-13T01:41:44.921Z,13.88
2023-05-13T01:44:12.070Z,17.80
2023-05-13T01:46:39.685Z,16.02
2023-05-13T01:49:09.009Z,16.30
2023-05-13T01:51:38.164Z,17.50
2023-05-13T01:54:05.849Z,14.02
2023-05-13T01:56:33.040Z,17.25
2023-05-13T01:59:00.227Z,18.10
2023-05-13T02:01:27.445Z,13.80
2023-05-13T02:03:54.629Z,14.63
2023-05-13T02:06:22.095Z,17.52
2023-05-13T02:08:49.534Z,17.08
2023-05-13T02:11:17.009Z,17.23
2023-05-13T02:13:44.299Z,15.93
2023-05-13T02:16:11.895Z,14.65
2023-05-13T02:18:39.092Z,14.98
2023-05-13T02:21:06.319Z,13.60
2023-05-13T02:23:33.568Z,17.55
2023-05-13T02:26:00.757Z,15.98
2023-05-13T02:28:27.977Z,17.08
2023-05-13T02:30:55.110Z,17.52
2023-05-13T02:33:23.586Z,15.50
2023-05-13T02:35:50.830Z,19.77
2023-05-13T02:38:17.996Z,19.60
2023-05-13T02:40:45.126Z,17.83
2023-05-13T02:43:12.465Z,19.92
2023-05-13T02:45:41.676Z,23.02
2023-05-13T02:48:10.964Z,20.90
2023-05-13T02:50:38.213Z,19.20
2023-05-13T02:53:05.947Z,18.10
2023-05-13T02:55:33.167Z,19.83
2023-05-13T02:58:00.570Z,19.92
2023-05-13T03:00:27.810Z,17.75
2023-05-13T03:02:55.080Z,17.70
2023-05-13T03:05:22.741Z,16.17
2023-05-13T03:07:50.057Z,15.95
2023-05-13T03:10:17.205Z,17.98
2023-05-13T03:12:44.498Z,18.92
2023-05-13T03:15:11.908Z,17.40
2023-05-13T03:17:39.110Z,17.17
2023-05-13T03:20:14.795Z,18.92
2023-05-13T03:22:42.006Z,15.40
2023-05-13T03:25:09.350Z,16.30
2023-05-13T03:27:36.669Z,15.07
2023-05-13T03:30:04.053Z,17.15
2023-05-13T03:32:32.120Z,16.48
2023-05-13T03:35:01.057Z,14.82
2023-05-13T03:37:31.446Z,16.70
2023-05-13T03:39:58.724Z,16.55
2023-05-13T03:42:30.729Z,16.52
2023-05-13T03:44:58.042Z,16.30
2023-05-13T03:47:27.613Z,17.15
2023-05-13T03:49:54.870Z,16.05
2023-05-13T03:52:22.052Z,18.42
2023-05-13T03:54:49.698Z,15.38
2023-05-13T03:57:16.911Z,16.88
2023-05-13T03:59:44.091Z,17.88
2023-05-13T04:02:11.351Z,17.75
2023-05-13T04:04:38.618Z,19.15
2023-05-13T04:07:06.347Z,19.08
2023-05-13T04:09:35.326Z,18.83
2023-05-13T04:12:03.621Z,18.60
2023-05-13T04:14:31.195Z,19.55
2023-05-13T04:16:58.608Z,18.35
2023-05-13T04:19:26.007Z,18.77
2023-05-13T04:21:53.688Z,20.05
2023-05-13T04:24:20.951Z,18.67
2023-05-13T04:26:49.502Z,18.27
2023-05-13T04:29:18.172Z,19.83
2023-05-13T04:31:46.603Z,19.55
2023-05-13T04:34:13.821Z,20.00
2023-05-13T04:36:41.089Z,19.52
2023-05-13T04:39:08.922Z,18.48
2023-05-13T04:41:36.207Z,21.00
2023-05-13T04:44:03.480Z,20.80
2023-05-13T04:46:30.965Z,16.20
2023-05-13T04:48:59.784Z,18.75
2023-05-13T04:51:27.860Z,18.92
2023-05-13T04:53:55.546Z,20.67
2023-05-13T04:56:22.792Z,20.77
2023-05-13T04:58:49.923Z,21.67
2023-05-13T05:01:17.195Z,21.95
2023-05-13T05:03:44.414Z,15.75
2023-05-13T05:06:11.726Z,20.38
2023-05-13T05:08:38.851Z,18.42
2023-05-13T05:11:06.348Z,20.58
2023-05-13T05:13:33.590Z,18.65
2023-05-13T05:16:00.746Z,19.60
2023-05-13T05:18:28.213Z,22.15
2023-05-13T05:20:55.654Z,22.00
2023-05-13T05:23:23.003Z,19.73
2023-05-13T05:25:55.347Z,18.80
2023-05-13T05:28:31.786Z,22.52
2023-05-13T05:30:58.969Z,19.45
2023-05-13T05:33:26.162Z,20.58
2023-05-13T05:35:53.340Z,17.33
2023-05-13T05:38:20.564Z,19.25
2023-05-13T05:40:47.848Z,18.80
2023-05-13T05:43:15.296Z,17.92
2023-05-13T05:45:42.611Z,20.02
2023-05-13T05:48:09.950Z,16.90
2023-05-13T05:50:37.371Z,16.63
2023-05-13T05:53:04.691Z,17.35
2023-05-13T05:55:31.962Z,15.00
2023-05-13T05:58:03.950Z,15.00
2023-05-13T06:00:31.171Z,15.85
2023-05-13T06:02:58.890Z,15.10
2023-05-13T06:05:26.212Z,15.50
2023-05-13T06:07:54.049Z,15.23
2023-05-13T06:10:21.433Z,13.80
2023-05-13T06:12:48.934Z,15.13
2023-05-13T06:15:16.438Z,16.27
2023-05-13T06:17:44.422Z,14.93
2023-05-13T06:20:12.059Z,14.90
2023-05-13T06:22:41.435Z,16.98
2023-05-13T06:25:08.902Z,17.65
2023-05-13T06:27:36.841Z,15.60
2023-05-13T06:30:04.222Z,14.98
2023-05-13T06:32:31.543Z,16.38
2023-05-13T06:34:59.015Z,14.88
2023-05-13T06:37:26.188Z,16.02
2023-05-13T06:39:53.724Z,15.27
2023-05-13T06:42:20.939Z,14.45
2023-05-13T06:44:48.144Z,16.65
2023-05-13T06:47:16.462Z,16.80
2023-05-13T06:49:44.104Z,16.60
2023-05-13T06:52:11.741Z,12.85
2023-05-13T06:54:39.304Z,15.05
2023-05-13T06:57:07.517Z,15.57
2023-05-13T06:59:36.546Z,13.70
2023-05-13T07:02:04.515Z,12.60
2023-05-13T07:04:31.997Z,13.93
2023-05-13T07:06:59.293Z,15.35
2023-05-13T07:09:27.387Z,13.70
2023-05-13T07:11:54.567Z,13.00
2023-05-13T07:14:21.883Z,12.32
2023-05-13T07:16:49.138Z,15.23
2023-05-13T07:19:16.425Z,14.93
2023-05-13T07:21:43.643Z,13.30
2023-05-13T07:24:10.810Z,13.13
2023-05-13T07:26:38.821Z,15.05
2023-05-13T07:29:06.298Z,15.43
2023-05-13T07:31:34.597Z,16.60
2023-05-13T07:34:01.749Z,18.02
2023-05-13T07:36:29.091Z,16.08
2023-05-13T07:38:56.220Z,14.85
2023-05-13T07:41:23.493Z,16.00
2023-05-13T07:43:50.705Z,20.15
2023-05-13T07:46:17.962Z,16.90
2023-05-13T07:48:45.512Z,16.30
2023-05-13T07:51:12.848Z,15.98
2023-05-13T07:53:40.054Z,15.15
2023-05-13T07:56:07.889Z,13.90
2023-05-13T07:58:35.075Z,16.00
2023-05-13T08:01:02.320Z,14.88
2023-05-13T08:03:29.546Z,12.93
2023-05-13T08:05:56.905Z,12.00
2023-05-13T08:08:24.203Z,10.55
2023-05-13T08:10:51.544Z,11.30
2023-05-13T08:13:18.739Z,14.15
2023-05-13T08:15:46.139Z,13.15
2023-05-13T08:18:13.555Z,16.77
2023-05-13T08:20:40.922Z,19.38
2023-05-13T08:23:08.102Z,18.15
2023-05-13T08:25:35.411Z,17.00
2023-05-13T08:28:03.707Z,19.17
2023-05-13T08:30:31.097Z,17.92
2023-05-13T08:32:58.364Z,15.88
2023-05-13T08:35:26.099Z,16.95
2023-05-13T08:37:53.313Z,17.83
2023-05-13T08:40:21.373Z,16.90
2023-05-13T08:42:50.116Z,15.30
2023-05-13T08:45:18.952Z,14.73
2023-05-13T08:47:46.094Z,17.23
2023-05-13T08:50:13.603Z,15.48
2023-05-13T08:52:41.160Z,17.35
2023-05-13T08:55:09.095Z,14.40
2023-05-13T08:57:36.255Z,13.63
2023-05-13T09:00:04.844Z,13.07
2023-05-13T09:02:32.268Z,12.50
2023-05-13T09:05:03.171Z,13.20
2023-05-13T09:07:33.734Z,13.65
2023-05-13T09:10:01.052Z,14.07
2023-05-13T09:12:47.160Z,14.98
2023-05-13T09:15:15.727Z,15.32
2023-05-13T09:17:44.151Z,15.38
2023-05-13T09:20:12.086Z,15.15
2023-05-13T09:22:43.143Z,14.65
2023-05-13T09:25:12.845Z,15.15
2023-05-13T09:27:41.323Z,14.48
2023-05-13T09:30:08.946Z,15.25
2023-05-13T09:32:36.223Z,15.30
2023-05-13T09:35:29.886Z,13.75
2023-05-13T09:37:57.475Z,14.50
2023-05-13T09:40:24.808Z,14.68
2023-05-13T09:42:52.226Z,12.55
2023-05-13T09:45:19.709Z,14.57
2023-05-13T09:47:53.600Z,14.63
2023-05-13T09:50:21.264Z,11.43
2023-05-13T09:52:48.741Z,11.85
2023-05-13T09:55:16.105Z,12.68
2023-05-13T09:57:43.438Z,11.23
2023-05-13T10:00:21.118Z,11.10
2023-05-13T10:02:56.870Z,12.18
2023-05-13T10:05:24.753Z,9.68
2023-05-13T10:07:52.365Z,9.85
2023-05-13T10:10:20.711Z,10.05
2023-05-13T10:12:48.459Z,8.27
2023-05-13T10:15:15.625Z,10.02
2023-05-13T10:17:44.932Z,9.82
2023-05-13T10:20:12.398Z,9.30
2023-05-13T10:22:39.901Z,9.63
2023-05-13T10:25:08.042Z,10.27
2023-05-13T10:27:35.424Z,8.77
2023-05-13T10:30:09.731Z,9.13
2023-05-13T10:32:39.128Z,10.27
2023-05-13T10:35:14.577Z,9.60
2023-05-13T10:37:45.006Z,8.88
2023-05-13T10:40:23.370Z,7.40
2023-05-13T10:43:10.161Z,8.90
2023-05-13T10:45:37.527Z,7.03
2023-05-13T10:48:09.463Z,7.00
2023-05-13T10:50:38.896Z,6.25
2023-05-13T10:53:11.109Z,5.88
2023-05-13T10:55:45.505Z,7.10
2023-05-13T10:58:14.116Z,5.35
2023-05-13T11:00:42.378Z,5.10
2023-05-13T11:03:10.396Z,6.03
2023-05-13T11:05:47.792Z,5.20
2023-05-13T11:08:34.204Z,7.05
2023-05-13T11:11:01.512Z,6.40
2023-05-13T11:13:38.224Z,5.43
2023-05-13T11:16:08.044Z,5.20
2023-05-13T11:18:36.458Z,5.05
2023-05-13T11:21:07.738Z,5.22
2023-05-13T11:23:50.458Z,5.07
2023-05-13T11:26:18.815Z,5.32
2023-05-13T11:28:55.190Z,4.80
2023-05-13T11:31:23.148Z,4.47
2023-05-13T11:34:11.788Z,4.88
2023-05-13T11:36:39.839Z,4.50
2023-05-13T11:39:12.186Z,4.63
2023-05-13T11:41:41.371Z,3.72
2023-05-13T11:44:08.988Z,4.53
2023-05-13T11:46:36.389Z,5.68
2023-05-13T11:49:05.824Z,3.40
2023-05-13T11:51:35.107Z,3.60
2023-05-13T11:54:03.134Z,3.55
2023-05-13T11:56:31.017Z,5.38
2023-05-13T11:59:14.693Z,3.67
2023-05-13T12:01:42.185Z,3.58
2023-05-13T12:04:09.447Z,2.88
2023-05-13T12:06:44.524Z,3.15
2023-05-13T12:09:12.706Z,4.32
2023-05-13T12:11:40.941Z,3.13
2023-05-13T12:14:08.600Z,3.67
2023-05-13T12:16:35.789Z,3.42
2023-05-13T12:19:07.279Z,4.25
2023-05-13T12:21:34.721Z,3.45
2023-05-13T12:24:02.125Z,2.85
2023-05-13T12:26:29.674Z,3.25
2023-05-13T12:28:58.199Z,3.20
2023-05-13T12:31:25.384Z,4.68
2023-05-13T12:33:53.144Z,3.95
2023-05-13T12:36:20.559Z,2.78
2023-05-13T12:39:14.151Z,3.17
2023-05-13T12:41:42.496Z,3.78
2023-05-13T12:44:11.144Z,3.67
2023-05-13T12:46:39.750Z,2.95
2023-05-13T12:49:07.156Z,3.17
2023-05-13T12:51:34.816Z,2.58
2023-05-13T12:54:02.298Z,3.10
2023-05-13T12:56:29.529Z,2.95
2023-05-13T12:58:57.111Z,3.25
2023-05-13T13:01:24.466Z,3.65
2023-05-13T13:03:51.842Z,3.65
2023-05-13T13:06:19.266Z,4.13
2023-05-13T13:08:46.460Z,4.20
2023-05-13T13:11:18.980Z,3.92
2023-05-13T13:13:50.556Z,3.53
2023-05-13T13:16:18.004Z,4.05
2023-05-13T13:18:45.321Z,3.47
2023-05-13T13:21:12.597Z,3.50
2023-05-13T13:23:39.779Z,3.78
2023-05-13T13:26:07.292Z,4.28
2023-05-13T13:28:34.563Z,3.58
2023-05-13T13:31:01.889Z,3.55
2023-05-13T13:33:29.180Z,3.97
2023-05-13T13:35:58.220Z,3.70
2023-05-13T13:38:25.426Z,3.35
2023-05-13T13:40:52.614Z,4.38
2023-05-13T13:43:19.938Z,4.25
2023-05-13T13:45:47.188Z,3.22
2023-05-13T13:48:14.487Z,4.15
2023-05-13T13:50:41.824Z,3.40
2023-05-13T13:53:09.272Z,3.85
2023-05-13T13:55:36.431Z,3.88
2023-05-13T13:58:03.600Z,4.05
2023-05-13T14:00:30.862Z,4.30
2023-05-13T14:02:58.130Z,3.97
2023-05-13T14:05:25.479Z,3.60
2023-05-13T14:07:54.155Z,3.70
2023-05-13T14:10:22.042Z,3.70
2023-05-13T14:12:49.545Z,3.90
2023-05-13T14:15:17.139Z,3.92
2023-05-13T14:17:44.443Z,3.38
2023-05-13T14:20:12.357Z,3.08
2023-05-13T14:22:39.819Z,3.50
2023-05-13T14:25:07.154Z,3.30
2023-05-13T14:27:36.357Z,3.63
2023-05-13T14:30:03.720Z,3.40
2023-05-13T14:32:30.954Z,6.20
2023-05-13T14:34:58.248Z,3.03
2023-05-13T14:37:25.588Z,3.30
2023-05-13T14:39:56.453Z,2.47
2023-05-13T14:42:23.990Z,2.20
2023-05-13T14:44:51.144Z,2.72
2023-05-13T14:47:18.458Z,2.35
2023-05-13T14:49:45.630Z,2.50
2023-05-13T14:52:12.936Z,2.80
2023-05-13T14:54:48.820Z,2.40
2023-05-13T14:57:16.077Z,2.40
2023-05-13T14:59:43.371Z,4.70
2023-05-13T15:02:11.858Z,3.63
2023-05-13T15:04:39.073Z,2.10
2023-05-13T15:07:07.963Z,3.00
2023-05-13T15:09:35.139Z,2.45
2023-05-13T15:12:02.264Z,2.40
2023-05-13T15:14:29.431Z,2.47
2023-05-13T15:16:56.803Z,2.63
2023-05-13T15:19:23.958Z,2.83
2023-05-13T15:21:51.114Z,2.60
2023-05-13T15:24:18.240Z,2.92
2023-05-13T15:26:45.356Z,2.30
2023-05-13T15:29:12.488Z,2.40
2023-05-13T15:31:39.650Z,2.28
2023-05-13T15:34:06.731Z,2.75
2023-05-13T15:36:35.456Z,2.15
2023-05-13T15:39:02.812Z,2.95
2023-05-13T15:41:29.995Z,3.38
2023-05-13T15:43:57.081Z,2.75
2023-05-13T15:46:24.389Z,3.20
2023-05-13T15:48:51.689Z,2.60
2023-05-13T15:51:18.818Z,3.08
2023-05-13T15:53:46.443Z,3.10
2023-05-13T15:56:13.627Z,3.20
2023-05-13T15:58:40.988Z,4.50
2023-05-13T16:01:08.126Z,3.70
2023-05-13T16:03:36.518Z,4.03
2023-05-13T16:06:05.073Z,3.42
2023-05-13T16:08:32.208Z,4.13
2023-05-13T16:10:59.309Z,3.03
2023-05-13T16:13:26.473Z,4.35
2023-05-13T16:15:54.193Z,2.80
2023-05-13T16:18:21.348Z,2.42
2023-05-13T16:20:48.465Z,3.00
2023-05-13T16:23:15.769Z,3.00
2023-05-13T16:25:43.970Z,2.40
2023-05-13T16:28:11.513Z,8.13
2023-05-13T16:30:39.440Z,3.65
2023-05-13T16:33:08.024Z,2.50
2023-05-13T16:35:35.587Z,3.90
2023-05-13T16:38:02.756Z,4.15
2023-05-13T16:40:31.965Z,3.97
2023-05-13T16:43:02.561Z,2.30
2023-05-13T16:45:30.985Z,2.42
2023-05-13T16:47:58.225Z,4.10
2023-05-13T16:50:25.744Z,2.00
2023-05-13T16:52:54.455Z,2.22
2023-05-13T16:55:22.466Z,2.10
2023-05-13T16:57:49.660Z,2.10
2023-05-13T17:00:17.002Z,2.20
2023-05-13T17:02:44.257Z,2.70
2023-05-13T17:05:11.467Z,2.65
2023-05-13T17:07:38.585Z,4.60
2023-05-13T17:10:06.000Z,2.05
2023-05-13T17:12:33.184Z,3.55
2023-05-13T17:15:00.362Z,2.03
2023-05-13T17:17:27.466Z,2.08
2023-05-13T17:19:54.606Z,2.67
2023-05-13T17:22:21.713Z,2.00
2023-05-13T17:24:48.842Z,2.70
2023-05-13T17:27:15.926Z,1.60
2023-05-13T17:29:43.078Z,2.00
2023-05-13T17:32:10.208Z,2.15
2023-05-13T17:34:37.307Z,2.35
2023-05-13T17:37:04.444Z,2.00
2023-05-13T17:39:31.562Z,2.00
2023-05-13T17:41:58.676Z,1.60
2023-05-13T17:44:25.859Z,1.40
2023-05-13T17:46:52.980Z,2.92
2023-05-13T17:49:20.138Z,2.00
2023-05-13T17:51:47.291Z,1.67
2023-05-13T17:54:14.455Z,1.58
2023-05-13T17:56:41.582Z,1.90
2023-05-13T17:59:08.748Z,1.70
2023-05-13T18:01:35.904Z,1.70
2023-05-13T18:04:03.023Z,3.03
2023-05-13T18:06:30.143Z,1.75
2023-05-13T18:08:57.552Z,1.73
2023-05-13T18:11:24.715Z,1.70
2023-05-13T18:13:51.814Z,2.00
2023-05-13T18:16:19.569Z,3.03
2023-05-13T18:18:48.565Z,1.63
2023-05-13T18:21:16.066Z,1.67
2023-05-13T18:23:45.762Z,3.33
2023-05-13T18:26:12.942Z,1.92
2023-05-13T18:28:44.840Z,2.35
2023-05-13T18:31:12.141Z,4.95
2023-05-13T18:33:39.322Z,2.13
2023-05-13T18:36:06.720Z,2.08
2023-05-13T18:38:33.823Z,3.42
2023-05-13T18:41:03.327Z,2.88
2023-05-13T18:43:30.691Z,1.70
2023-05-13T18:45:58.272Z,1.70
2023-05-13T18:48:25.504Z,2.00
2023-05-13T18:50:55.426Z,2.72
2023-05-13T18:53:22.710Z,2.88
2023-05-13T18:55:49.815Z,4.10
2023-05-13T18:58:17.330Z,1.77
2023-05-13T19:00:44.531Z,4.70
2023-05-13T19:03:11.801Z,10.45
2023-05-13T19:05:40.401Z,1.80
2023-05-13T19:08:07.973Z,1.80
2023-05-13T19:10:40.014Z,2.65
2023-05-13T19:13:07.658Z,2.60
2023-05-13T19:15:34.844Z,2.55
2023-05-13T19:18:02.097Z,4.80
2023-05-13T19:20:29.899Z,2.45
2023-05-13T19:22:57.181Z,2.88
2023-05-13T19:25:24.438Z,2.05
2023-05-13T19:27:51.632Z,2.45
2023-05-13T19:30:18.775Z,1.20
2023-05-13T19:32:45.965Z,1.40
2023-05-13T19:35:13.087Z,1.65
2023-05-13T19:37:40.349Z,2.13
2023-05-13T19:40:07.735Z,1.20
2023-05-13T19:42:34.933Z,1.20
2023-05-13T19:45:02.187Z,1.52
2023-05-13T19:47:31.022Z,2.55
2023-05-13T19:49:58.276Z,1.25
2023-05-13T19:52:25.386Z,1.20
2023-05-13T19:54:52.932Z,1.67
2023-05-13T19:57:20.069Z,1.17
2023-05-13T19:59:47.526Z,0.88
2023-05-13T20:02:14.696Z,1.15
2023-05-13T20:04:41.949Z,1.20
2023-05-13T20:07:09.464Z,1.17
2023-05-13T20:09:37.092Z,0.88
2023-05-13T20:12:04.620Z,1.00
2023-05-13T20:14:45.125Z,1.80
2023-05-13T20:17:15.363Z,1.00
2023-05-13T20:19:42.620Z,1.42
2023-05-13T20:22:10.059Z,1.75
2023-05-13T20:24:37.175Z,1.45
2023-05-13T20:27:04.322Z,2.35
2023-05-13T20:29:38.637Z,1.70
2023-05-13T20:32:06.469Z,1.67
2023-05-13T20:34:34.183Z,2.90
2023-05-13T20:37:01.551Z,1.98
2023-05-13T20:39:28.974Z,2.05
2023-05-13T20:41:56.666Z,4.03
2023-05-13T20:44:24.379Z,2.10
2023-05-13T20:46:51.617Z,4.45
2023-05-13T20:49:18.864Z,4.15
2023-05-13T20:51:48.755Z,2.67
2023-05-13T20:54:16.378Z,3.15
2023-05-13T20:56:43.840Z,2.92
2023-05-13T20:59:10.980Z,2.83
2023-05-13T21:01:38.254Z,3.53
2023-05-13T21:04:06.417Z,4.30
2023-05-13T21:06:33.658Z,4.28
2023-05-13T21:09:00.858Z,3.08
2023-05-13T21:11:27.970Z,4.32
2023-05-13T21:13:55.097Z,3.83
2023-05-13T21:16:22.506Z,3.53
2023-05-13T21:18:49.771Z,4.45
2023-05-13T21:21:16.981Z,3.83
2023-05-13T21:23:45.573Z,4.40
2023-05-13T21:26:12.732Z,3.78
2023-05-13T21:28:40.644Z,5.40
2023-05-13T21:31:07.826Z,4.38
2023-05-13T21:33:34.998Z,4.40
2023-05-13T21:36:02.139Z,3.85
2023-05-13T21:38:29.566Z,4.95
2023-05-13T21:40:56.720Z,6.95
2023-05-13T21:43:23.800Z,5.78
2023-05-13T21:45:50.914Z,7.47
2023-05-13T21:48:18.155Z,9.25
2023-05-13T21:50:45.456Z,8.23
2023-05-13T21:53:13.158Z,8.02
2023-05-13T21:55:40.269Z,9.68
2023-05-13T21:58:07.387Z,8.38
2023-05-13T22:00:34.541Z,9.98
2023-05-13T22:03:01.866Z,13.98
2023-05-13T22:05:29.154Z,9.85
2023-05-13T22:07:56.302Z,11.05
2023-05-13T22:10:23.718Z,10.73
2023-05-13T22:12:51.097Z,12.02
2023-05-13T22:15:18.199Z,10.90
2023-05-13T22:17:46.825Z,12.77
2023-05-13T22:20:15.522Z,11.77
2023-05-13T22:22:42.788Z,12.73
2023-05-13T22:25:10.063Z,12.30
2023-05-13T22:27:37.278Z,11.27
2023-05-13T22:30:04.535Z,12.80
2023-05-13T22:32:34.249Z,13.05
2023-05-13T22:35:01.388Z,12.48
2023-05-13T22:37:28.514Z,12.60
2023-05-13T22:39:55.627Z,14.15
2023-05-13T22:42:23.196Z,17.05
2023-05-13T22:44:50.320Z,14.85
2023-05-13T22:47:17.458Z,13.80
2023-05-13T22:49:44.607Z,13.43
2023-05-13T22:52:11.723Z,15.15
2023-05-13T22:54:38.814Z,14.98
2023-05-13T22:57:06.071Z,15.48
2023-05-13T22:59:33.193Z,21.35
2023-05-13T23:02:00.519Z,14.80
2023-05-13T23:04:28.544Z,15.38
2023-05-13T23:06:55.725Z,15.07
2023-05-13T23:09:22.879Z,16.25
2023-05-13T23:11:49.980Z,18.77
2023-05-13T23:14:17.069Z,17.67
2023-05-13T23:16:44.488Z,16.45
2023-05-13T23:19:11.825Z,15.50
2023-05-13T23:21:38.990Z,15.43
2023-05-13T23:24:06.219Z,18.05
2023-05-13T23:26:33.537Z,15.85
2023-05-13T23:29:00.683Z,16.08
2023-05-13T23:31:27.839Z,16.42
2023-05-13T23:33:54.981Z,17.30
2023-05-13T23:36:22.095Z,16.52
2023-05-13T23:38:50.766Z,16.02
2023-05-13T23:41:17.863Z,16.98
2023-05-13T23:43:45.069Z,18.92
2023-05-13T23:46:12.311Z,18.30
2023-05-13T23:48:39.479Z,18.73
2023-05-13T23:51:06.906Z,16.75
2023-05-13T23:53:34.070Z,17.17
2023-05-13T23:56:01.168Z,17.42
2023-05-13T23:58:28.309Z,16.48
